< Cyclone 197801 1978 Season Cyclone 197803 >
Cyclone 197802 (SAM)
General InformationTrack Information on Google Maps || ResourceGoogle EarthGE AnimationAtom FeedGeoJSON
Detalied Best Track (Time Zone = UTC)
Year Month Day Hour Lat. Long. Pressure (hPa) Wind (kt) Class Image Chart
1977 12 13 00 -7.5 96.5 1006 0 0 -- --
1977 12 13 03 -7.7 95.7 1006 0 0 -- --
1977 12 13 06 -7.9 94.9 1004 0 0 -- --
1977 12 13 09 -8.1 94.1 1002 0 0 -- --
1977 12 13 12 -8.3 93.3 1003 0 0 -- --
1977 12 13 15 -8.5 92.5 1005 0 0 -- --
1977 12 13 18 -8.8 91.7 1004 0 0 -- --
1977 12 13 21 -9.1 90.9 1003 0 0 -- --
1977 12 14 00 -9.4 90.1 1003 0 0 -- --
1977 12 14 03 -9.6 89.4 1002 0 0 -- --
1977 12 14 06 -9.7 88.9 1001 0 0 -- --
1977 12 14 09 -9.8 88.5 1001 0 0 -- --
1977 12 14 12 -9.9 88.2 1002 0 0 -- --
1977 12 14 15 -9.9 87.9 1000 0 0 -- --
1977 12 14 18 -10.0 87.6 1002 0 0 -- --
1977 12 14 21 -10.1 87.3 999 0 0 -- --
1977 12 15 00 -10.2 87.1 999 0 0 -- --
1977 12 15 03 -10.2 86.9 998 0 0 -- --
1977 12 15 06 -10.3 86.7 996 0 0 -- --
1977 12 15 09 -10.4 86.5 995 0 0 -- --
1977 12 15 12 -10.5 86.4 995 0 0 -- --
1977 12 15 15 -10.5 86.2 995 0 0 -- --
1977 12 15 18 -10.6 86.0 995 0 0 -- --
1977 12 15 21 -10.6 85.9 995 0 0 -- --
1977 12 16 00 -10.7 85.8 994 0 0 -- --
1977 12 16 03 -10.9 85.6 994 0 0 -- --
1977 12 16 06 -11.1 85.4 993 0 0 -- --
1977 12 16 09 -11.3 85.2 992 0 0 -- --
1977 12 16 12 -11.5 85.0 992 0 0 -- --
1977 12 16 15 -11.7 84.8 992 0 0 -- --
1977 12 16 18 -11.9 84.6 992 0 0 -- --
1977 12 16 21 -12.1 84.5 991 0 0 -- --
1977 12 17 00 -12.3 84.4 990 0 0 -- --
1977 12 17 03 -12.4 84.3 992 0 0 -- --
1977 12 17 06 -12.5 84.3 992 0 0 -- --
1977 12 17 09 -12.5 84.2 992 0 0 -- --
1977 12 17 12 -12.6 84.2 994 0 0 -- --
1977 12 17 15 -12.6 84.1 996 0 0 -- --
1977 12 17 18 -12.7 84.1 998 0 0 -- --
1977 12 17 21 -12.7 84.0 998 0 0 -- --
1977 12 18 00 -12.8 83.9 999 0 0 -- --
1977 12 18 03 -12.8 83.9 1000 0 0 -- --
1977 12 18 06 -12.9 83.8 1000 0 0 -- --
1977 12 18 09 -12.9 83.7 1000 0 0 -- --
1977 12 18 12 -13.0 83.6 1001 0 0 -- --
1977 12 18 15 -13.0 83.6 1002 0 0 -- --
1977 12 18 18 -13.1 83.5 1002 0 0 -- --
1977 12 18 21 -13.1 83.4 1002 0 0 -- --
1977 12 19 00 -13.2 83.3 1003 0 0 -- --
1977 12 19 03 -13.3 83.5 1003 0 0 -- --
1977 12 19 09 -13.5 83.0 1000 0 0 -- --
1977 12 19 12 -13.6 82.9 1001 0 0 -- --
1977 12 19 15 -13.8 82.8 1001 0 0 -- --
1977 12 19 18 -14.0 82.7 1000 0 0 -- --
1977 12 19 21 -14.2 82.6 999 0 0 -- --
1977 12 20 00 -14.4 82.4 999 0 0 -- --
1977 12 20 03 -14.6 82.2 1001 0 0 -- --
1977 12 20 06 -14.8 81.9 1002 0 0 -- --
1977 12 20 09 -14.9 81.4 1002 0 0 -- --
1977 12 20 12 -15.0 80.8 1004 0 0 -- --
1977 12 20 15 -15.0 80.2 1006 0 0 -- --
1977 12 20 18 -15.0 79.6 1006 0 0 -- --
1977 12 20 21 -14.9 78.9 1006 0 0 -- --
1977 12 21 00 -14.9 78.0 1006 0 0 -- --
< Cyclone 197801 1978 Season Cyclone 197803 >

Help